sensor_id;sensor_type;location;lat;lon;timestamp;temperature;humidity
7360;DHT22;3720;48.274;7.796;2024-03-29T00:02:06;9.40;99.90
7360;DHT22;3720;48.274;7.796;2024-03-29T00:04:37;9.50;99.90
7360;DHT22;3720;48.274;7.796;2024-03-29T00:07:08;9.50;99.90
7360;DHT22;3720;48.274;7.796;2024-03-29T00:09:39;9.40;99.90
7360;DHT22;3720;48.274;7.796;2024-03-29T00:12:11;9.30;99.90
7360;DHT22;3720;48.274;7.796;2024-03-29T00:14:42;9.20;99.90
7360;DHT22;3720;48.274;7.796;2024-03-29T00:17:13;9.20;99.90
7360;DHT22;3720;48.274;7.796;2024-03-29T00:19:44;9.40;99.90
7360;DHT22;3720;48.274;7.796;2024-03-29T00:22:15;9.60;99.90
7360;DHT22;3720;48.274;7.796;2024-03-29T00:24:46;9.90;99.90
7360;DHT22;3720;48.274;7.796;2024-03-29T00:27:18;10.00;99.90
7360;DHT22;3720;48.274;7.796;2024-03-29T00:29:49;10.10;99.90
7360;DHT22;3720;48.274;7.796;2024-03-29T00:32:21;10.10;99.90
7360;DHT22;3720;48.274;7.796;2024-03-29T00:34:53;10.10;99.90
7360;DHT22;3720;48.274;7.796;2024-03-29T00:37:24;10.00;99.90
7360;DHT22;3720;48.274;7.796;2024-03-29T00:39:55;9.90;99.90
7360;DHT22;3720;48.274;7.796;2024-03-29T00:42:27;9.90;99.90
7360;DHT22;3720;48.274;7.796;2024-03-29T00:44:58;10.00;99.90
7360;DHT22;3720;48.274;7.796;2024-03-29T00:47:29;10.00;99.90
7360;DHT22;3720;48.274;7.796;2024-03-29T00:50:00;9.80;99.90
7360;DHT22;3720;48.274;7.796;2024-03-29T00:52:31;9.70;99.90
7360;DHT22;3720;48.274;7.796;2024-03-29T00:55:02;9.60;99.90
7360;DHT22;3720;48.274;7.796;2024-03-29T00:57:34;9.50;99.90
7360;DHT22;3720;48.274;7.796;2024-03-29T01:00:06;9.40;99.90
7360;DHT22;3720;48.274;7.796;2024-03-29T01:02:37;9.40;99.90
7360;DHT22;3720;48.274;7.796;2024-03-29T01:05:08;9.40;99.90
7360;DHT22;3720;48.274;7.796;2024-03-29T01:07:40;9.40;99.90
7360;DHT22;3720;48.274;7.796;2024-03-29T01:10:11;9.50;99.90
7360;DHT22;3720;48.274;7.796;2024-03-29T01:12:43;9.60;99.90
7360;DHT22;3720;48.274;7.796;2024-03-29T01:15:14;9.80;99.90
7360;DHT22;3720;48.274;7.796;2024-03-29T01:17:45;10.10;99.90
7360;DHT22;3720;48.274;7.796;2024-03-29T01:20:16;10.40;99.90
7360;DHT22;3720;48.274;7.796;2024-03-29T01:22:47;10.60;99.90
7360;DHT22;3720;48.274;7.796;2024-03-29T01:25:18;10.70;99.90
7360;DHT22;3720;48.274;7.796;2024-03-29T01:27:50;10.80;99.90
7360;DHT22;3720;48.274;7.796;2024-03-29T01:30:22;10.80;99.90
7360;DHT22;3720;48.274;7.796;2024-03-29T01:32:52;10.60;99.90
7360;DHT22;3720;48.274;7.796;2024-03-29T01:35:23;10.50;99.90
7360;DHT22;3720;48.274;7.796;2024-03-29T01:37:54;10.40;99.90
7360;DHT22;3720;48.274;7.796;2024-03-29T01:40:25;10.30;99.90
7360;DHT22;3720;48.274;7.796;2024-03-29T01:42:57;10.20;99.90
7360;DHT22;3720;48.274;7.796;2024-03-29T01:45:29;10.20;99.90
7360;DHT22;3720;48.274;7.796;2024-03-29T01:48:01;10.10;99.90
7360;DHT22;3720;48.274;7.796;2024-03-29T01:50:34;10.00;99.90
7360;DHT22;3720;48.274;7.796;2024-03-29T01:53:08;9.90;99.90
7360;DHT22;3720;48.274;7.796;2024-03-29T01:55:40;9.70;99.90
7360;DHT22;3720;48.274;7.796;2024-03-29T01:58:14;9.60;99.90
7360;DHT22;3720;48.274;7.796;2024-03-29T02:00:52;9.50;99.90
7360;DHT22;3720;48.274;7.796;2024-03-29T02:03:24;9.30;99.90
7360;DHT22;3720;48.274;7.796;2024-03-29T02:05:56;9.10;99.90
7360;DHT22;3720;48.274;7.796;2024-03-29T02:08:30;9.00;99.90
7360;DHT22;3720;48.274;7.796;2024-03-29T02:11:04;8.90;99.90
7360;DHT22;3720;48.274;7.796;2024-03-29T02:13:37;8.70;99.90
7360;DHT22;3720;48.274;7.796;2024-03-29T02:16:10;8.60;99.90
7360;DHT22;3720;48.274;7.796;2024-03-29T02:18:42;8.60;99.90
7360;DHT22;3720;48.274;7.796;2024-03-29T02:21:14;8.60;99.90
7360;DHT22;3720;48.274;7.796;2024-03-29T02:23:47;8.60;99.90
7360;DHT22;3720;48.274;7.796;2024-03-29T02:26:22;8.60;99.90
7360;DHT22;3720;48.274;7.796;2024-03-29T02:28:56;8.60;99.90
7360;DHT22;3720;48.274;7.796;2024-03-29T02:31:28;8.60;99.90
7360;DHT22;3720;48.274;7.796;2024-03-29T02:34:00;8.70;99.90
7360;DHT22;3720;48.274;7.796;2024-03-29T02:36:32;8.70;99.90
7360;DHT22;3720;48.274;7.796;2024-03-29T02:39:03;8.60;99.90
7360;DHT22;3720;48.274;7.796;2024-03-29T02:41:37;8.60;99.90
7360;DHT22;3720;48.274;7.796;2024-03-29T02:44:09;8.80;99.90
7360;DHT22;3720;48.274;7.796;2024-03-29T02:46:41;8.90;99.90
7360;DHT22;3720;48.274;7.796;2024-03-29T02:49:13;8.80;99.90
7360;DHT22;3720;48.274;7.796;2024-03-29T02:51:43;8.70;99.90
7360;DHT22;3720;48.274;7.796;2024-03-29T02:54:15;8.70;99.90
7360;DHT22;3720;48.274;7.796;2024-03-29T02:56:47;8.80;99.90
7360;DHT22;3720;48.274;7.796;2024-03-29T02:59:19;8.80;99.90
7360;DHT22;3720;48.274;7.796;2024-03-29T03:01:50;8.90;99.90
7360;DHT22;3720;48.274;7.796;2024-03-29T03:04:22;8.90;99.90
7360;DHT22;3720;48.274;7.796;2024-03-29T03:06:53;9.00;99.90
7360;DHT22;3720;48.274;7.796;2024-03-29T03:09:26;8.90;99.90
7360;DHT22;3720;48.274;7.796;2024-03-29T03:12:16;8.90;99.90
7360;DHT22;3720;48.274;7.796;2024-03-29T03:14:48;8.90;99.90
7360;DHT22;3720;48.274;7.796;2024-03-29T03:17:20;8.90;99.90
7360;DHT22;3720;48.274;7.796;2024-03-29T03:19:51;8.90;99.90
7360;DHT22;3720;48.274;7.796;2024-03-29T03:22:24;8.90;99.90
7360;DHT22;3720;48.274;7.796;2024-03-29T03:24:55;9.00;99.90
7360;DHT22;3720;48.274;7.796;2024-03-29T03:27:28;9.00;99.90
7360;DHT22;3720;48.274;7.796;2024-03-29T03:29:59;9.00;99.90
7360;DHT22;3720;48.274;7.796;2024-03-29T03:32:31;9.00;99.90
7360;DHT22;3720;48.274;7.796;2024-03-29T03:35:01;8.90;99.90
7360;DHT22;3720;48.274;7.796;2024-03-29T03:37:33;8.90;99.90
7360;DHT22;3720;48.274;7.796;2024-03-29T03:40:05;9.00;99.90
7360;DHT22;3720;48.274;7.796;2024-03-29T03:42:39;8.90;99.90
7360;DHT22;3720;48.274;7.796;2024-03-29T03:45:09;8.90;99.90
7360;DHT22;3720;48.274;7.796;2024-03-29T03:47:41;8.90;99.90
7360;DHT22;3720;48.274;7.796;2024-03-29T03:50:12;8.80;99.90
7360;DHT22;3720;48.274;7.796;2024-03-29T03:52:44;8.80;99.90
7360;DHT22;3720;48.274;7.796;2024-03-29T03:55:16;8.80;99.90
7360;DHT22;3720;48.274;7.796;2024-03-29T03:57:48;8.80;99.90
7360;DHT22;3720;48.274;7.796;2024-03-29T04:00:21;8.70;99.90
7360;DHT22;3720;48.274;7.796;2024-03-29T04:02:53;8.80;99.90
7360;DHT22;3720;48.274;7.796;2024-03-29T04:05:25;8.70;99.90
7360;DHT22;3720;48.274;7.796;2024-03-29T04:07:57;8.70;99.90
7360;DHT22;3720;48.274;7.796;2024-03-29T04:10:29;8.70;99.90
7360;DHT22;3720;48.274;7.796;2024-03-29T04:13:01;8.70;99.90
7360;DHT22;3720;48.274;7.796;2024-03-29T04:15:33;8.70;99.90
7360;DHT22;3720;48.274;7.796;2024-03-29T04:18:04;8.70;99.90
7360;DHT22;3720;48.274;7.796;2024-03-29T04:20:36;8.70;99.90
7360;DHT22;3720;48.274;7.796;2024-03-29T04:23:06;8.70;99.90
7360;DHT22;3720;48.274;7.796;2024-03-29T04:25:38;8.70;99.90
7360;DHT22;3720;48.274;7.796;2024-03-29T04:28:10;8.70;99.90
7360;DHT22;3720;48.274;7.796;2024-03-29T04:30:50;8.70;99.90
7360;DHT22;3720;48.274;7.796;2024-03-29T04:33:22;8.60;99.90
7360;DHT22;3720;48.274;7.796;2024-03-29T04:35:55;8.60;99.90
7360;DHT22;3720;48.274;7.796;2024-03-29T04:38:26;8.50;99.90
7360;DHT22;3720;48.274;7.796;2024-03-29T04:40:59;8.50;99.90
7360;DHT22;3720;48.274;7.796;2024-03-29T04:43:32;8.40;99.90
7360;DHT22;3720;48.274;7.796;2024-03-29T04:46:07;8.30;99.90
7360;DHT22;3720;48.274;7.796;2024-03-29T04:48:41;8.20;99.90
7360;DHT22;3720;48.274;7.796;2024-03-29T04:51:13;8.20;99.90
7360;DHT22;3720;48.274;7.796;2024-03-29T04:53:45;8.20;99.90
7360;DHT22;3720;48.274;7.796;2024-03-29T04:56:17;8.20;99.90
7360;DHT22;3720;48.274;7.796;2024-03-29T04:58:50;8.10;99.90
7360;DHT22;3720;48.274;7.796;2024-03-29T05:01:22;8.10;99.90
7360;DHT22;3720;48.274;7.796;2024-03-29T05:03:54;8.10;99.90
7360;DHT22;3720;48.274;7.796;2024-03-29T05:06:25;8.10;99.90
7360;DHT22;3720;48.274;7.796;2024-03-29T05:08:57;8.20;99.90
7360;DHT22;3720;48.274;7.796;2024-03-29T05:11:29;8.20;99.90
7360;DHT22;3720;48.274;7.796;2024-03-29T05:14:02;8.20;99.90
7360;DHT22;3720;48.274;7.796;2024-03-29T05:16:34;8.30;99.90
7360;DHT22;3720;48.274;7.796;2024-03-29T05:19:06;8.30;99.90
7360;DHT22;3720;48.274;7.796;2024-03-29T05:21:38;8.30;99.90
7360;DHT22;3720;48.274;7.796;2024-03-29T05:24:09;8.30;99.90
7360;DHT22;3720;48.274;7.796;2024-03-29T05:26:41;8.30;99.90
7360;DHT22;3720;48.274;7.796;2024-03-29T05:29:14;8.40;99.90
7360;DHT22;3720;48.274;7.796;2024-03-29T05:31:46;8.40;99.90
7360;DHT22;3720;48.274;7.796;2024-03-29T05:34:18;8.40;99.90
7360;DHT22;3720;48.274;7.796;2024-03-29T05:36:49;8.40;99.90
7360;DHT22;3720;48.274;7.796;2024-03-29T05:39:21;8.40;99.90
7360;DHT22;3720;48.274;7.796;2024-03-29T05:41:53;8.40;99.90
7360;DHT22;3720;48.274;7.796;2024-03-29T05:44:27;8.50;99.90
7360;DHT22;3720;48.274;7.796;2024-03-29T05:46:58;8.50;99.90
7360;DHT22;3720;48.274;7.796;2024-03-29T05:49:30;8.60;99.90
7360;DHT22;3720;48.274;7.796;2024-03-29T05:52:02;8.60;99.90
7360;DHT22;3720;48.274;7.796;2024-03-29T05:54:34;8.70;99.90
7360;DHT22;3720;48.274;7.796;2024-03-29T05:57:06;8.80;99.90
7360;DHT22;3720;48.274;7.796;2024-03-29T05:59:40;8.80;99.90
7360;DHT22;3720;48.274;7.796;2024-03-29T06:02:12;8.90;99.90
7360;DHT22;3720;48.274;7.796;2024-03-29T06:04:43;9.00;99.90
7360;DHT22;3720;48.274;7.796;2024-03-29T06:07:17;9.10;99.90
7360;DHT22;3720;48.274;7.796;2024-03-29T06:09:49;9.10;99.90
7360;DHT22;3720;48.274;7.796;2024-03-29T06:12:21;9.20;99.90
7360;DHT22;3720;48.274;7.796;2024-03-29T06:14:54;9.10;99.90
7360;DHT22;3720;48.274;7.796;2024-03-29T06:17:44;9.20;99.90
7360;DHT22;3720;48.274;7.796;2024-03-29T06:20:16;9.20;99.90
7360;DHT22;3720;48.274;7.796;2024-03-29T06:22:48;9.10;99.90
7360;DHT22;3720;48.274;7.796;2024-03-29T06:25:20;9.10;99.90
7360;DHT22;3720;48.274;7.796;2024-03-29T06:27:51;9.10;99.90
7360;DHT22;3720;48.274;7.796;2024-03-29T06:30:25;9.10;99.90
7360;DHT22;3720;48.274;7.796;2024-03-29T06:32:56;9.20;99.90
7360;DHT22;3720;48.274;7.796;2024-03-29T06:35:28;9.20;99.90
7360;DHT22;3720;48.274;7.796;2024-03-29T06:38:00;9.10;99.90
7360;DHT22;3720;48.274;7.796;2024-03-29T06:40:32;9.00;99.90
7360;DHT22;3720;48.274;7.796;2024-03-29T06:43:04;8.90;99.90
7360;DHT22;3720;48.274;7.796;2024-03-29T06:45:41;8.90;99.90
7360;DHT22;3720;48.274;7.796;2024-03-29T06:48:13;8.80;99.90
7360;DHT22;3720;48.274;7.796;2024-03-29T06:50:45;8.80;99.90
7360;DHT22;3720;48.274;7.796;2024-03-29T06:53:17;8.80;99.90
7360;DHT22;3720;48.274;7.796;2024-03-29T06:55:48;8.80;99.90
7360;DHT22;3720;48.274;7.796;2024-03-29T06:58:20;8.80;99.90
7360;DHT22;3720;48.274;7.796;2024-03-29T07:00:54;8.80;99.90
7360;DHT22;3720;48.274;7.796;2024-03-29T07:03:25;8.70;99.90
7360;DHT22;3720;48.274;7.796;2024-03-29T07:05:57;8.70;99.90
7360;DHT22;3720;48.274;7.796;2024-03-29T07:08:29;8.70;99.90
7360;DHT22;3720;48.274;7.796;2024-03-29T07:11:02;8.80;99.90
7360;DHT22;3720;48.274;7.796;2024-03-29T07:13:34;8.80;99.90
7360;DHT22;3720;48.274;7.796;2024-03-29T07:16:07;8.90;99.90
7360;DHT22;3720;48.274;7.796;2024-03-29T07:18:39;9.00;99.90
7360;DHT22;3720;48.274;7.796;2024-03-29T07:21:11;9.00;99.90
7360;DHT22;3720;48.274;7.796;2024-03-29T07:23:43;9.00;99.90
7360;DHT22;3720;48.274;7.796;2024-03-29T07:26:15;9.10;99.90
7360;DHT22;3720;48.274;7.796;2024-03-29T07:28:46;9.20;99.90
7360;DHT22;3720;48.274;7.796;2024-03-29T07:31:20;9.20;99.90
7360;DHT22;3720;48.274;7.796;2024-03-29T07:33:52;9.50;99.90
7360;DHT22;3720;48.274;7.796;2024-03-29T07:36:23;9.50;99.90
7360;DHT22;3720;48.274;7.796;2024-03-29T07:38:58;9.60;99.90
7360;DHT22;3720;48.274;7.796;2024-03-29T07:41:30;10.00;99.90
7360;DHT22;3720;48.274;7.796;2024-03-29T07:44:02;10.10;99.90
7360;DHT22;3720;48.274;7.796;2024-03-29T07:46:36;10.10;99.90
7360;DHT22;3720;48.274;7.796;2024-03-29T07:49:08;10.20;99.90
7360;DHT22;3720;48.274;7.796;2024-03-29T07:51:40;10.30;99.90
7360;DHT22;3720;48.274;7.796;2024-03-29T07:54:12;10.30;99.90
7360;DHT22;3720;48.274;7.796;2024-03-29T07:56:43;10.40;99.90
7360;DHT22;3720;48.274;7.796;2024-03-29T07:59:15;10.40;99.90
7360;DHT22;3720;48.274;7.796;2024-03-29T08:01:51;10.50;99.90
7360;DHT22;3720;48.274;7.796;2024-03-29T08:04:25;10.50;99.90
7360;DHT22;3720;48.274;7.796;2024-03-29T08:06:57;10.50;99.90
7360;DHT22;3720;48.274;7.796;2024-03-29T08:09:28;10.50;99.90
7360;DHT22;3720;48.274;7.796;2024-03-29T08:12:01;10.50;99.90
7360;DHT22;3720;48.274;7.796;2024-03-29T08:14:33;10.50;99.90
7360;DHT22;3720;48.274;7.796;2024-03-29T08:17:06;10.50;99.90
7360;DHT22;3720;48.274;7.796;2024-03-29T08:19:40;10.40;99.90
7360;DHT22;3720;48.274;7.796;2024-03-29T08:22:12;10.50;99.90
7360;DHT22;3720;48.274;7.796;2024-03-29T08:24:44;10.50;99.90
7360;DHT22;3720;48.274;7.796;2024-03-29T08:27:16;10.50;99.90
7360;DHT22;3720;48.274;7.796;2024-03-29T08:29:48;10.60;99.90
7360;DHT22;3720;48.274;7.796;2024-03-29T08:32:22;10.60;99.90
7360;DHT22;3720;48.274;7.796;2024-03-29T08:34:54;10.70;99.90
7360;DHT22;3720;48.274;7.796;2024-03-29T08:37:26;10.90;99.90
7360;DHT22;3720;48.274;7.796;2024-03-29T08:39:58;11.00;99.90
7360;DHT22;3720;48.274;7.796;2024-03-29T08:42:30;11.20;99.90
7360;DHT22;3720;48.274;7.796;2024-03-29T08:45:05;11.30;99.90
7360;DHT22;3720;48.274;7.796;2024-03-29T08:47:40;11.40;99.90
7360;DHT22;3720;48.274;7.796;2024-03-29T08:50:11;11.40;99.90
7360;DHT22;3720;48.274;7.796;2024-03-29T08:52:44;11.50;99.90
7360;DHT22;3720;48.274;7.796;2024-03-29T08:55:16;11.60;99.90
7360;DHT22;3720;48.274;7.796;2024-03-29T08:57:48;11.70;99.90
7360;DHT22;3720;48.274;7.796;2024-03-29T09:00:20;11.80;99.90
7360;DHT22;3720;48.274;7.796;2024-03-29T09:02:53;11.80;99.90
7360;DHT22;3720;48.274;7.796;2024-03-29T09:05:26;11.80;99.90
7360;DHT22;3720;48.274;7.796;2024-03-29T09:07:59;11.90;99.90
7360;DHT22;3720;48.274;7.796;2024-03-29T09:10:31;12.00;99.90
7360;DHT22;3720;48.274;7.796;2024-03-29T09:13:03;12.10;99.90
7360;DHT22;3720;48.274;7.796;2024-03-29T09:15:37;12.20;99.90
7360;DHT22;3720;48.274;7.796;2024-03-29T09:18:11;12.30;99.90
7360;DHT22;3720;48.274;7.796;2024-03-29T09:20:56;12.30;99.90
7360;DHT22;3720;48.274;7.796;2024-03-29T09:23:28;12.40;99.90
7360;DHT22;3720;48.274;7.796;2024-03-29T09:26:00;12.50;99.90
7360;DHT22;3720;48.274;7.796;2024-03-29T09:28:35;12.60;99.90
7360;DHT22;3720;48.274;7.796;2024-03-29T09:31:07;12.60;99.90
7360;DHT22;3720;48.274;7.796;2024-03-29T09:33:41;12.60;99.90
7360;DHT22;3720;48.274;7.796;2024-03-29T09:36:12;12.60;99.90
7360;DHT22;3720;48.274;7.796;2024-03-29T09:38:45;12.60;99.90
7360;DHT22;3720;48.274;7.796;2024-03-29T09:41:18;12.70;99.90
7360;DHT22;3720;48.274;7.796;2024-03-29T09:43:51;12.80;99.90
7360;DHT22;3720;48.274;7.796;2024-03-29T09:46:25;12.90;99.90
7360;DHT22;3720;48.274;7.796;2024-03-29T09:49:01;13.00;99.90
7360;DHT22;3720;48.274;7.796;2024-03-29T09:51:34;13.20;99.90
7360;DHT22;3720;48.274;7.796;2024-03-29T09:54:06;13.40;99.90
7360;DHT22;3720;48.274;7.796;2024-03-29T09:56:43;13.60;99.90
7360;DHT22;3720;48.274;7.796;2024-03-29T09:59:15;13.70;99.90
7360;DHT22;3720;48.274;7.796;2024-03-29T10:01:48;13.90;99.90
7360;DHT22;3720;48.274;7.796;2024-03-29T10:04:23;14.00;99.90
7360;DHT22;3720;48.274;7.796;2024-03-29T10:06:56;14.20;99.90
7360;DHT22;3720;48.274;7.796;2024-03-29T10:09:28;14.40;99.90
7360;DHT22;3720;48.274;7.796;2024-03-29T10:12:03;14.60;99.90
7360;DHT22;3720;48.274;7.796;2024-03-29T10:14:44;14.80;99.90
7360;DHT22;3720;48.274;7.796;2024-03-29T10:17:19;15.00;99.90
7360;DHT22;3720;48.274;7.796;2024-03-29T10:19:53;15.10;99.90
7360;DHT22;3720;48.274;7.796;2024-03-29T10:22:24;15.10;99.90
7360;DHT22;3720;48.274;7.796;2024-03-29T10:24:57;15.20;99.90
7360;DHT22;3720;48.274;7.796;2024-03-29T10:27:29;15.10;99.90
7360;DHT22;3720;48.274;7.796;2024-03-29T10:30:01;15.10;99.90
7360;DHT22;3720;48.274;7.796;2024-03-29T10:32:33;15.10;99.90
7360;DHT22;3720;48.274;7.796;2024-03-29T10:35:08;15.10;99.90
7360;DHT22;3720;48.274;7.796;2024-03-29T10:37:42;15.10;99.90
7360;DHT22;3720;48.274;7.796;2024-03-29T10:40:14;15.00;99.90
7360;DHT22;3720;48.274;7.796;2024-03-29T10:42:47;15.00;99.90
7360;DHT22;3720;48.274;7.796;2024-03-29T10:45:22;14.90;99.90
7360;DHT22;3720;48.274;7.796;2024-03-29T10:47:54;14.90;99.90
7360;DHT22;3720;48.274;7.796;2024-03-29T10:50:29;14.90;99.90
7360;DHT22;3720;48.274;7.796;2024-03-29T10:53:02;14.90;99.90
7360;DHT22;3720;48.274;7.796;2024-03-29T10:55:34;14.90;99.90
7360;DHT22;3720;48.274;7.796;2024-03-29T10:58:11;15.00;99.90
7360;DHT22;3720;48.274;7.796;2024-03-29T11:00:46;15.10;99.90
7360;DHT22;3720;48.274;7.796;2024-03-29T11:03:23;15.20;99.90
7360;DHT22;3720;48.274;7.796;2024-03-29T11:06:02;15.30;99.90
7360;DHT22;3720;48.274;7.796;2024-03-29T11:08:36;15.30;99.90
7360;DHT22;3720;48.274;7.796;2024-03-29T11:11:10;15.40;99.90
7360;DHT22;3720;48.274;7.796;2024-03-29T11:13:47;15.50;99.90
7360;DHT22;3720;48.274;7.796;2024-03-29T11:16:20;15.60;99.90
7360;DHT22;3720;48.274;7.796;2024-03-29T11:18:53;15.60;99.90
7360;DHT22;3720;48.274;7.796;2024-03-29T11:21:26;15.60;99.90
7360;DHT22;3720;48.274;7.796;2024-03-29T11:24:04;15.60;99.90
7360;DHT22;3720;48.274;7.796;2024-03-29T11:26:36;15.50;99.90
7360;DHT22;3720;48.274;7.796;2024-03-29T11:29:18;15.40;99.90
7360;DHT22;3720;48.274;7.796;2024-03-29T11:31:56;15.30;99.90
7360;DHT22;3720;48.274;7.796;2024-03-29T11:34:31;15.30;99.90
7360;DHT22;3720;48.274;7.796;2024-03-29T11:37:09;15.20;99.90
7360;DHT22;3720;48.274;7.796;2024-03-29T11:39:47;15.20;99.90
7360;DHT22;3720;48.274;7.796;2024-03-29T11:42:35;15.20;99.90
7360;DHT22;3720;48.274;7.796;2024-03-29T11:45:08;15.20;99.90
7360;DHT22;3720;48.274;7.796;2024-03-29T11:47:40;15.20;99.90
7360;DHT22;3720;48.274;7.796;2024-03-29T11:50:13;15.20;99.90
7360;DHT22;3720;48.274;7.796;2024-03-29T11:52:46;15.20;99.90
7360;DHT22;3720;48.274;7.796;2024-03-29T11:55:18;15.20;99.90
7360;DHT22;3720;48.274;7.796;2024-03-29T11:57:50;15.10;99.90
7360;DHT22;3720;48.274;7.796;2024-03-29T12:00:22;15.10;99.90
7360;DHT22;3720;48.274;7.796;2024-03-29T12:03:00;15.10;99.90
7360;DHT22;3720;48.274;7.796;2024-03-29T12:05:31;15.30;99.90
7360;DHT22;3720;48.274;7.796;2024-03-29T12:08:06;15.30;99.90
7360;DHT22;3720;48.274;7.796;2024-03-29T12:10:39;15.40;99.90
7360;DHT22;3720;48.274;7.796;2024-03-29T12:13:11;15.40;99.90
7360;DHT22;3720;48.274;7.796;2024-03-29T12:15:45;15.40;99.90
7360;DHT22;3720;48.274;7.796;2024-03-29T12:18:19;15.50;99.90
7360;DHT22;3720;48.274;7.796;2024-03-29T12:20:52;15.60;99.90
7360;DHT22;3720;48.274;7.796;2024-03-29T12:23:24;15.70;99.90
7360;DHT22;3720;48.274;7.796;2024-03-29T12:25:57;15.70;99.90
7360;DHT22;3720;48.274;7.796;2024-03-29T12:28:30;15.80;99.90
7360;DHT22;3720;48.274;7.796;2024-03-29T12:31:09;15.80;99.90
7360;DHT22;3720;48.274;7.796;2024-03-29T12:33:41;15.80;99.90
7360;DHT22;3720;48.274;7.796;2024-03-29T12:36:23;16.00;99.90
7360;DHT22;3720;48.274;7.796;2024-03-29T12:38:58;16.10;99.90
7360;DHT22;3720;48.274;7.796;2024-03-29T12:41:34;16.30;99.90
7360;DHT22;3720;48.274;7.796;2024-03-29T12:44:06;16.40;99.90
7360;DHT22;3720;48.274;7.796;2024-03-29T12:46:39;16.60;99.90
7360;DHT22;3720;48.274;7.796;2024-03-29T12:49:12;16.90;99.90
7360;DHT22;3720;48.274;7.796;2024-03-29T12:51:45;17.00;99.90
7360;DHT22;3720;48.274;7.796;2024-03-29T12:54:18;17.20;99.90
7360;DHT22;3720;48.274;7.796;2024-03-29T12:56:50;17.40;99.90
7360;DHT22;3720;48.274;7.796;2024-03-29T12:59:22;17.40;99.90
7360;DHT22;3720;48.274;7.796;2024-03-29T13:01:54;17.40;99.90
7360;DHT22;3720;48.274;7.796;2024-03-29T13:04:27;17.30;99.90
7360;DHT22;3720;48.274;7.796;2024-03-29T13:06:59;17.30;99.90
7360;DHT22;3720;48.274;7.796;2024-03-29T13:09:32;17.30;99.90
7360;DHT22;3720;48.274;7.796;2024-03-29T13:12:04;17.30;99.90
7360;DHT22;3720;48.274;7.796;2024-03-29T13:14:36;17.30;99.90
7360;DHT22;3720;48.274;7.796;2024-03-29T13:17:08;17.30;99.90
7360;DHT22;3720;48.274;7.796;2024-03-29T13:19:40;17.30;99.90
7360;DHT22;3720;48.274;7.796;2024-03-29T13:22:12;17.30;99.90
7360;DHT22;3720;48.274;7.796;2024-03-29T13:24:45;17.30;99.90
7360;DHT22;3720;48.274;7.796;2024-03-29T13:27:17;17.30;99.90
7360;DHT22;3720;48.274;7.796;2024-03-29T13:29:49;17.40;99.90
7360;DHT22;3720;48.274;7.796;2024-03-29T13:32:21;17.50;99.90
7360;DHT22;3720;48.274;7.796;2024-03-29T13:34:53;17.70;99.90
7360;DHT22;3720;48.274;7.796;2024-03-29T13:37:25;17.90;99.90
7360;DHT22;3720;48.274;7.796;2024-03-29T13:39:59;18.10;99.90
7360;DHT22;3720;48.274;7.796;2024-03-29T13:42:31;18.40;99.90
7360;DHT22;3720;48.274;7.796;2024-03-29T13:45:05;18.60;99.90
7360;DHT22;3720;48.274;7.796;2024-03-29T13:47:37;18.80;99.90
7360;DHT22;3720;48.274;7.796;2024-03-29T13:50:11;18.90;99.90
7360;DHT22;3720;48.274;7.796;2024-03-29T13:52:46;18.90;99.90
7360;DHT22;3720;48.274;7.796;2024-03-29T13:55:19;18.90;99.90
7360;DHT22;3720;48.274;7.796;2024-03-29T13:57:52;19.00;99.90
7360;DHT22;3720;48.274;7.796;2024-03-29T14:00:25;19.00;99.90
7360;DHT22;3720;48.274;7.796;2024-03-29T14:02:57;19.00;99.90
7360;DHT22;3720;48.274;7.796;2024-03-29T14:05:28;19.00;99.90
7360;DHT22;3720;48.274;7.796;2024-03-29T14:08:00;19.00;99.90
7360;DHT22;3720;48.274;7.796;2024-03-29T14:10:34;18.90;99.90
7360;DHT22;3720;48.274;7.796;2024-03-29T14:13:06;18.90;99.90
7360;DHT22;3720;48.274;7.796;2024-03-29T14:15:39;18.80;99.90
7360;DHT22;3720;48.274;7.796;2024-03-29T14:18:11;18.90;99.90
7360;DHT22;3720;48.274;7.796;2024-03-29T14:20:44;18.80;99.90
7360;DHT22;3720;48.274;7.796;2024-03-29T14:23:16;18.80;99.90
7360;DHT22;3720;48.274;7.796;2024-03-29T14:25:51;18.90;99.90
7360;DHT22;3720;48.274;7.796;2024-03-29T14:28:23;19.10;99.90
7360;DHT22;3720;48.274;7.796;2024-03-29T14:30:55;19.20;99.90
7360;DHT22;3720;48.274;7.796;2024-03-29T14:33:27;19.30;99.90
7360;DHT22;3720;48.274;7.796;2024-03-29T14:35:59;19.50;99.90
7360;DHT22;3720;48.274;7.796;2024-03-29T14:38:31;19.70;99.90
7360;DHT22;3720;48.274;7.796;2024-03-29T14:41:04;19.90;99.90
7360;DHT22;3720;48.274;7.796;2024-03-29T14:43:36;20.00;99.90
7360;DHT22;3720;48.274;7.796;2024-03-29T14:46:08;20.30;99.90
7360;DHT22;3720;48.274;7.796;2024-03-29T14:48:40;20.60;99.90
7360;DHT22;3720;48.274;7.796;2024-03-29T14:51:13;20.80;99.90
7360;DHT22;3720;48.274;7.796;2024-03-29T14:53:45;20.80;99.90
7360;DHT22;3720;48.274;7.796;2024-03-29T14:56:21;20.90;99.90
7360;DHT22;3720;48.274;7.796;2024-03-29T14:58:53;21.10;99.90
7360;DHT22;3720;48.274;7.796;2024-03-29T15:01:25;21.10;99.90
7360;DHT22;3720;48.274;7.796;2024-03-29T15:03:57;20.90;99.90
7360;DHT22;3720;48.274;7.796;2024-03-29T15:06:29;20.70;99.90
7360;DHT22;3720;48.274;7.796;2024-03-29T15:09:01;20.60;99.90
7360;DHT22;3720;48.274;7.796;2024-03-29T15:11:36;20.20;99.90
7360;DHT22;3720;48.274;7.796;2024-03-29T15:14:07;20.00;99.90
7360;DHT22;3720;48.274;7.796;2024-03-29T15:16:41;19.80;99.90
7360;DHT22;3720;48.274;7.796;2024-03-29T15:19:12;19.70;99.90
7360;DHT22;3720;48.274;7.796;2024-03-29T15:21:44;19.70;99.90
7360;DHT22;3720;48.274;7.796;2024-03-29T15:24:18;19.70;99.90
7360;DHT22;3720;48.274;7.796;2024-03-29T15:26:51;19.60;99.90
7360;DHT22;3720;48.274;7.796;2024-03-29T15:29:28;19.60;99.90
7360;DHT22;3720;48.274;7.796;2024-03-29T15:31:59;19.50;99.90
7360;DHT22;3720;48.274;7.796;2024-03-29T15:34:31;19.30;99.90
7360;DHT22;3720;48.274;7.796;2024-03-29T15:37:03;19.20;99.90
7360;DHT22;3720;48.274;7.796;2024-03-29T15:39:35;19.00;99.90
7360;DHT22;3720;48.274;7.796;2024-03-29T15:42:08;18.90;99.90
7360;DHT22;3720;48.274;7.796;2024-03-29T15:44:41;18.90;99.90
7360;DHT22;3720;48.274;7.796;2024-03-29T15:47:12;18.80;99.90
7360;DHT22;3720;48.274;7.796;2024-03-29T15:49:45;18.60;99.90
7360;DHT22;3720;48.274;7.796;2024-03-29T15:52:17;18.50;99.90
7360;DHT22;3720;48.274;7.796;2024-03-29T15:54:49;18.30;99.90
7360;DHT22;3720;48.274;7.796;2024-03-29T15:57:22;18.10;99.90
7360;DHT22;3720;48.274;7.796;2024-03-29T15:59:54;18.10;99.90
7360;DHT22;3720;48.274;7.796;2024-03-29T16:02:26;17.90;99.90
7360;DHT22;3720;48.274;7.796;2024-03-29T16:04:58;17.80;99.90
7360;DHT22;3720;48.274;7.796;2024-03-29T16:07:29;17.60;99.90
7360;DHT22;3720;48.274;7.796;2024-03-29T16:10:01;17.40;99.90
7360;DHT22;3720;48.274;7.796;2024-03-29T16:12:35;17.30;99.90
7360;DHT22;3720;48.274;7.796;2024-03-29T16:15:07;17.20;99.90
7360;DHT22;3720;48.274;7.796;2024-03-29T16:17:41;17.10;99.90
7360;DHT22;3720;48.274;7.796;2024-03-29T16:20:13;17.00;99.90
7360;DHT22;3720;48.274;7.796;2024-03-29T16:22:44;17.00;99.90
7360;DHT22;3720;48.274;7.796;2024-03-29T16:25:17;16.80;99.90
7360;DHT22;3720;48.274;7.796;2024-03-29T16:27:49;16.80;99.90
7360;DHT22;3720;48.274;7.796;2024-03-29T16:30:21;16.70;99.90
7360;DHT22;3720;48.274;7.796;2024-03-29T16:32:52;16.60;99.90
7360;DHT22;3720;48.274;7.796;2024-03-29T16:35:24;16.50;99.90
7360;DHT22;3720;48.274;7.796;2024-03-29T16:37:54;16.50;99.90
7360;DHT22;3720;48.274;7.796;2024-03-29T16:40:27;16.40;99.90
7360;DHT22;3720;48.274;7.796;2024-03-29T16:43:00;16.30;99.90